createdAt,value
2019-02-20T00:02:06.174Z,56.90
2019-02-20T00:04:48.690Z,57.87
2019-02-20T00:07:31.233Z,52.53
2019-02-20T00:10:21.448Z,54.33
2019-02-20T00:13:05.053Z,51.37
2019-02-20T00:15:45.659Z,52.33
2019-02-20T00:18:31.553Z,53.63
2019-02-20T00:21:14.457Z,54.23
2019-02-20T00:23:59.213Z,51.87
2019-02-20T00:26:45.276Z,53.00
2019-02-20T00:29:30.230Z,54.90
2019-02-20T00:32:19.562Z,57.20
2019-02-20T00:35:01.027Z,55.50
2019-02-20T00:37:44.940Z,54.37
2019-02-20T00:40:30.922Z,56.53
2019-02-20T00:43:19.752Z,60.93
2019-02-20T00:46:26.302Z,56.60
2019-02-20T00:49:35.394Z,54.40
2019-02-20T00:52:31.394Z,55.13
2019-02-20T00:55:10.388Z,56.20
2019-02-20T00:57:50.534Z,54.50
2019-02-20T01:00:36.300Z,54.73
2019-02-20T01:03:19.743Z,56.67
2019-02-20T01:06:01.006Z,53.83
2019-02-20T01:08:44.033Z,57.47
2019-02-20T01:11:30.308Z,52.17
2019-02-20T01:14:15.926Z,57.90
2019-02-20T01:16:59.367Z,52.50
2019-02-20T01:19:46.731Z,54.10
2019-02-20T01:22:28.775Z,52.57
2019-02-20T01:25:12.350Z,53.40
2019-02-20T01:27:55.180Z,50.93
2019-02-20T01:30:40.653Z,51.80
2019-02-20T01:33:23.607Z,50.90
2019-02-20T01:36:07.510Z,56.53
2019-02-20T01:38:51.756Z,55.87
2019-02-20T01:41:32.222Z,52.17
2019-02-20T01:44:12.682Z,52.07
2019-02-20T01:46:57.472Z,53.67
2019-02-20T01:49:44.193Z,54.67
2019-02-20T01:52:28.298Z,51.33
2019-02-20T01:55:16.451Z,53.27
2019-02-20T01:58:03.402Z,51.40
2019-02-20T02:00:43.173Z,50.20
2019-02-20T02:03:31.713Z,51.93
2019-02-20T02:06:14.314Z,52.07
2019-02-20T02:08:55.280Z,46.73
2019-02-20T02:11:39.685Z,46.20
2019-02-20T02:14:19.175Z,50.33
2019-02-20T02:17:05.189Z,48.70
2019-02-20T02:19:49.030Z,47.93
2019-02-20T02:22:33.828Z,44.63
2019-02-20T02:25:17.296Z,56.03
2019-02-20T02:27:55.843Z,50.33
2019-02-20T02:30:46.265Z,45.37
2019-02-20T02:33:33.286Z,44.83
2019-02-20T02:36:13.872Z,47.47
2019-02-20T02:39:03.204Z,41.83
2019-02-20T02:41:49.304Z,43.97
2019-02-20T02:44:34.399Z,48.00
2019-02-20T02:47:16.337Z,43.43
2019-02-20T02:50:03.293Z,44.57
2019-02-20T02:52:50.177Z,45.30
2019-02-20T02:55:35.697Z,44.17
2019-02-20T02:58:16.012Z,44.47
2019-02-20T03:01:03.024Z,52.50
2019-02-20T03:03:48.785Z,52.20
2019-02-20T03:06:35.902Z,50.10
2019-02-20T03:09:21.606Z,47.03
2019-02-20T03:12:01.962Z,47.30
2019-02-20T03:14:47.808Z,47.83
2019-02-20T03:17:29.923Z,45.33
2019-02-20T03:20:14.320Z,50.77
2019-02-20T03:23:02.011Z,62.50
2019-02-20T03:25:40.073Z,53.47
2019-02-20T03:28:23.024Z,47.23
2019-02-20T03:31:04.503Z,44.50
2019-02-20T03:33:48.839Z,41.30
2019-02-20T03:36:34.569Z,41.57
2019-02-20T03:39:21.023Z,39.23
2019-02-20T03:42:02.513Z,41.83
2019-02-20T03:44:43.303Z,41.83
2019-02-20T03:47:29.192Z,42.10
2019-02-20T03:50:13.805Z,45.77
2019-02-20T03:52:59.926Z,46.77
2019-02-20T03:55:44.234Z,43.83
2019-02-20T03:58:28.845Z,61.40
2019-02-20T04:01:12.965Z,73.77
2019-02-20T04:03:55.666Z,62.03
2019-02-20T04:06:36.740Z,47.83
2019-02-20T04:09:21.728Z,45.37
2019-02-20T04:12:04.291Z,44.50
2019-02-20T04:14:45.064Z,42.87
2019-02-20T04:17:32.655Z,40.00
2019-02-20T04:20:35.277Z,40.30
2019-02-20T04:23:23.518Z,40.27
2019-02-20T04:26:11.019Z,39.23
2019-02-20T04:28:57.578Z,39.77
2019-02-20T04:31:39.646Z,42.70
2019-02-20T04:34:35.260Z,43.17
2019-02-20T04:37:21.704Z,51.93
2019-02-20T04:40:06.708Z,51.73
2019-02-20T04:42:46.996Z,44.20
2019-02-20T04:45:30.551Z,48.80
2019-02-20T04:48:12.767Z,47.73
2019-02-20T04:50:58.010Z,43.93
2019-02-20T04:53:42.928Z,46.30
2019-02-20T04:56:25.445Z,45.00
2019-02-20T04:59:09.725Z,44.53
2019-02-20T05:01:52.511Z,42.37
2019-02-20T05:04:33.734Z,40.23
2019-02-20T05:07:19.608Z,40.27
2019-02-20T05:10:03.574Z,37.07
2019-02-20T05:12:44.999Z,41.53
2019-02-20T05:15:30.091Z,41.90
2019-02-20T05:18:14.096Z,41.27
2019-02-20T05:21:03.138Z,43.47
2019-02-20T05:23:43.500Z,42.37
2019-02-20T05:26:34.378Z,44.50
2019-02-20T05:29:20.752Z,42.80
2019-02-20T05:32:08.750Z,45.80
2019-02-20T05:34:51.327Z,44.73
2019-02-20T05:37:33.910Z,45.63
2019-02-20T05:40:13.477Z,46.17
2019-02-20T05:43:00.705Z,47.57
2019-02-20T05:45:46.752Z,45.73
2019-02-20T05:48:29.264Z,47.07
2019-02-20T05:51:10.867Z,48.03
2019-02-20T05:53:53.659Z,47.40
2019-02-20T05:56:33.893Z,48.50
2019-02-20T05:59:17.783Z,46.03
2019-02-20T06:02:00.454Z,46.17
2019-02-20T06:04:41.481Z,45.30
2019-02-20T06:07:25.853Z,49.83
2019-02-20T06:10:07.939Z,45.33
2019-02-20T06:12:51.124Z,47.07
2019-02-20T06:15:38.835Z,47.83
2019-02-20T06:18:22.218Z,51.30
2019-02-20T06:21:17.467Z,49.83
2019-02-20T06:24:03.974Z,51.13
2019-02-20T06:26:50.961Z,51.43
2019-02-20T06:29:42.563Z,53.13
2019-02-20T06:32:26.753Z,53.13
2019-02-20T06:35:08.690Z,51.93
2019-02-20T06:37:53.390Z,52.40
2019-02-20T06:40:38.726Z,51.63
2019-02-20T06:43:21.965Z,52.77
2019-02-20T06:46:04.093Z,54.40
2019-02-20T06:48:47.470Z,54.80
2019-02-20T06:51:32.303Z,53.33
2019-02-20T06:54:16.353Z,51.73
2019-02-20T06:57:07.315Z,49.03
2019-02-20T06:59:54.494Z,48.23
2019-02-20T07:02:46.640Z,52.33
2019-02-20T07:05:57.479Z,52.00
2019-02-20T07:09:27.055Z,52.17
2019-02-20T07:12:35.373Z,55.10
2019-02-20T07:15:49.994Z,54.27
2019-02-20T07:18:44.084Z,49.17
2019-02-20T07:22:09.603Z,50.13
2019-02-20T07:25:06.214Z,47.37
2019-02-20T07:28:30.833Z,47.17
2019-02-20T07:31:14.810Z,48.07
2019-02-20T07:34:05.248Z,48.50
2019-02-20T07:36:45.589Z,49.07
2019-02-20T07:39:28.454Z,50.67
2019-02-20T07:42:10.577Z,47.83
2019-02-20T07:44:54.200Z,45.00
2019-02-20T07:47:37.307Z,43.83
2019-02-20T07:50:18.500Z,45.73
2019-02-20T07:53:00.070Z,44.50
2019-02-20T07:55:46.850Z,44.63
2019-02-20T07:58:32.652Z,42.97
2019-02-20T08:01:18.857Z,44.63
2019-02-20T08:04:11.477Z,42.33
2019-02-20T08:06:52.251Z,38.80
2019-02-20T08:09:35.013Z,37.97
2019-02-20T08:12:19.204Z,41.53
2019-02-20T08:15:00.705Z,38.30
2019-02-20T08:17:48.654Z,37.00
2019-02-20T08:20:37.520Z,36.70
2019-02-20T08:23:18.935Z,37.33
2019-02-20T08:26:00.954Z,37.83
2019-02-20T08:28:43.060Z,34.93
2019-02-20T08:31:29.910Z,36.07
2019-02-20T08:34:18.809Z,39.43
2019-02-20T08:37:03.596Z,42.13
2019-02-20T08:39:44.449Z,37.33
2019-02-20T08:42:29.357Z,37.73
2019-02-20T08:45:10.737Z,32.33
2019-02-20T08:47:55.338Z,32.73
2019-02-20T08:50:33.240Z,32.57
2019-02-20T08:53:17.812Z,35.77
2019-02-20T08:56:06.867Z,31.50
2019-02-20T08:58:57.591Z,29.87
2019-02-20T09:01:38.732Z,30.33
2019-02-20T09:04:21.957Z,28.60
2019-02-20T09:07:07.191Z,27.37
2019-02-20T09:09:49.557Z,26.63
2019-02-20T09:12:31.560Z,28.57
2019-02-20T09:15:19.997Z,27.53
2019-02-20T09:18:03.167Z,27.63
2019-02-20T09:20:42.022Z,27.33
2019-02-20T09:23:26.089Z,26.53
2019-02-20T09:26:12.391Z,26.30
2019-02-20T09:28:52.677Z,25.67
2019-02-20T09:31:40.721Z,26.10
2019-02-20T09:34:26.235Z,25.80
2019-02-20T09:37:06.147Z,25.97
2019-02-20T09:39:53.290Z,25.37
2019-02-20T09:42:37.221Z,25.77
2019-02-20T09:45:19.557Z,25.90
2019-02-20T09:48:05.172Z,25.93
2019-02-20T09:50:52.945Z,26.20
2019-02-20T09:53:42.815Z,25.57
2019-02-20T09:56:22.701Z,25.67
2019-02-20T09:59:11.648Z,25.37
2019-02-20T10:01:54.086Z,27.33
2019-02-20T10:04:35.582Z,31.53
2019-02-20T10:07:21.961Z,31.80
2019-02-20T10:10:06.058Z,30.77
2019-02-20T10:12:52.971Z,28.43
2019-02-20T10:15:38.842Z,26.77
2019-02-20T10:18:21.222Z,30.70
2019-02-20T10:21:04.884Z,27.57
2019-02-20T10:23:50.782Z,27.73
2019-02-20T10:26:33.385Z,30.97
2019-02-20T10:29:15.992Z,28.03
2019-02-20T10:31:59.157Z,29.13
2019-02-20T10:34:38.883Z,28.87
2019-02-20T10:37:39.955Z,26.40
2019-02-20T10:40:22.919Z,34.70
2019-02-20T10:43:07.479Z,32.40
2019-02-20T10:45:49.948Z,30.17
2019-02-20T10:48:33.491Z,33.60
2019-02-20T10:51:18.965Z,41.10
2019-02-20T10:54:06.175Z,35.47
2019-02-20T10:56:52.851Z,36.87
2019-02-20T10:59:41.333Z,36.97
2019-02-20T11:02:29.097Z,34.37
2019-02-20T11:05:15.724Z,33.83
2019-02-20T11:08:00.878Z,38.13
2019-02-20T11:10:48.082Z,36.00
2019-02-20T11:13:39.258Z,40.80
2019-02-20T11:16:19.308Z,38.53
2019-02-20T11:19:01.468Z,33.07
2019-02-20T11:21:44.074Z,32.97
2019-02-20T11:24:26.903Z,38.43
2019-02-20T11:27:13.475Z,36.20
2019-02-20T11:30:03.865Z,34.20
2019-02-20T11:32:46.888Z,34.80
2019-02-20T11:35:40.142Z,35.10
2019-02-20T11:38:32.171Z,34.07
2019-02-20T11:41:17.179Z,33.93
2019-02-20T11:43:59.122Z,41.37
2019-02-20T11:46:44.699Z,47.87
2019-02-20T11:49:33.975Z,34.70
2019-02-20T11:52:19.251Z,31.33
2019-02-20T11:55:05.594Z,31.83
2019-02-20T11:57:50.789Z,30.40
2019-02-20T12:00:35.187Z,29.90
2019-02-20T12:03:23.902Z,31.03
2019-02-20T12:06:07.426Z,36.23
2019-02-20T12:08:48.373Z,33.07
2019-02-20T12:11:33.026Z,31.30
2019-02-20T12:14:18.002Z,39.37
2019-02-20T12:17:05.839Z,35.13
2019-02-20T12:19:55.241Z,36.77
2019-02-20T12:22:45.293Z,33.23
2019-02-20T12:25:38.545Z,67.50
2019-02-20T12:28:22.459Z,53.37
2019-02-20T12:31:05.471Z,39.47
2019-02-20T12:33:52.250Z,32.77
2019-02-20T12:36:54.047Z,29.87
2019-02-20T12:39:38.620Z,29.63
2019-02-20T12:42:25.208Z,29.87
2019-02-20T12:45:08.587Z,33.50
2019-02-20T12:47:56.066Z,31.83
2019-02-20T12:50:45.713Z,38.83
2019-02-20T12:53:37.934Z,46.30
2019-02-20T12:56:23.145Z,35.90
2019-02-20T12:59:07.974Z,31.70
2019-02-20T13:01:52.969Z,34.83
2019-02-20T13:04:48.289Z,34.87
2019-02-20T13:07:36.375Z,34.70
2019-02-20T13:10:19.606Z,32.23
2019-02-20T13:13:09.337Z,33.77
2019-02-20T13:16:21.869Z,34.30
2019-02-20T13:19:12.628Z,35.60
2019-02-20T13:22:05.928Z,33.97
2019-02-20T13:25:04.019Z,39.30
2019-02-20T13:27:55.059Z,42.47
2019-02-20T13:30:38.753Z,40.63
2019-02-20T13:33:30.874Z,41.53
2019-02-20T13:36:20.697Z,42.40
2019-02-20T13:39:08.622Z,36.57
2019-02-20T13:42:06.451Z,34.40
2019-02-20T13:44:55.377Z,33.10
2019-02-20T13:47:49.190Z,32.63
2019-02-20T13:50:46.340Z,36.73
2019-02-20T13:53:49.299Z,35.00
2019-02-20T13:56:40.468Z,34.20
2019-02-20T13:59:29.883Z,36.57
2019-02-20T14:02:28.367Z,36.07
2019-02-20T14:05:22.570Z,33.07
2019-02-20T14:08:21.322Z,34.03
2019-02-20T14:11:15.094Z,35.77
2019-02-20T14:13:59.119Z,37.27
2019-02-20T14:16:49.186Z,34.43
2019-02-20T14:19:43.999Z,36.23
2019-02-20T14:22:32.747Z,37.33
2019-02-20T14:25:16.901Z,36.37
2019-02-20T14:28:17.556Z,36.23
2019-02-20T14:31:23.199Z,36.13
2019-02-20T14:34:11.693Z,35.87
2019-02-20T14:37:30.215Z,36.17
2019-02-20T14:40:18.846Z,37.07
2019-02-20T14:43:05.595Z,33.57
2019-02-20T14:45:58.483Z,52.67
2019-02-20T14:48:39.957Z,39.07
2019-02-20T14:51:38.742Z,38.20
2019-02-20T14:54:34.579Z,37.10
2019-02-20T14:57:21.296Z,34.87
2019-02-20T15:00:03.223Z,34.87
2019-02-20T15:02:54.123Z,35.90
2019-02-20T15:05:57.034Z,34.57
2019-02-20T15:08:46.808Z,33.77
2019-02-20T15:11:46.939Z,90.23
2019-02-20T15:14:38.819Z,45.57
2019-02-20T15:17:31.640Z,41.17
2019-02-20T15:20:13.340Z,35.03
2019-02-20T15:23:06.378Z,35.60
2019-02-20T15:26:16.687Z,35.53
2019-02-20T15:28:59.118Z,37.47
2019-02-20T15:31:50.589Z,36.17
2019-02-20T15:34:38.270Z,36.63
2019-02-20T15:37:44.875Z,35.63
2019-02-20T15:40:31.039Z,35.57
2019-02-20T15:43:16.869Z,36.60
2019-02-20T15:46:14.004Z,35.50
2019-02-20T15:49:31.565Z,34.17
2019-02-20T15:52:19.422Z,34.40
2019-02-20T15:55:07.689Z,35.67
2019-02-20T15:57:50.010Z,36.10
2019-02-20T16:00:52.094Z,35.83
2019-02-20T16:03:39.186Z,38.90
2019-02-20T16:06:25.740Z,39.63
2019-02-20T16:09:10.272Z,40.10
2019-02-20T16:12:02.304Z,38.10
2019-02-20T16:15:07.404Z,38.50
2019-02-20T16:17:52.932Z,38.67
2019-02-20T16:20:41.760Z,38.70
2019-02-20T16:23:28.657Z,44.43
2019-02-20T16:26:15.935Z,41.77
2019-02-20T16:29:07.669Z,41.40
2019-02-20T16:31:48.743Z,39.57
2019-02-20T16:34:50.365Z,40.00
2019-02-20T16:37:40.086Z,42.00
2019-02-20T16:40:29.821Z,41.50
2019-02-20T16:43:14.306Z,40.87
2019-02-20T16:45:58.237Z,41.97
2019-02-20T16:48:48.385Z,42.10
2019-02-20T16:51:36.469Z,40.77
2019-02-20T16:54:17.519Z,39.53
2019-02-20T16:57:02.259Z,40.83
2019-02-20T16:59:50.358Z,38.93
2019-02-20T17:02:42.802Z,40.57
2019-02-20T17:05:27.298Z,40.87
2019-02-20T17:08:14.974Z,40.30
2019-02-20T17:11:01.721Z,39.20
2019-02-20T17:13:47.484Z,39.03
2019-02-20T17:16:32.673Z,41.00
2019-02-20T17:19:21.433Z,55.50
2019-02-20T17:22:06.694Z,55.43
2019-02-20T17:24:58.158Z,49.70
2019-02-20T17:27:45.775Z,45.67
2019-02-20T17:30:25.727Z,42.90
2019-02-20T17:33:12.537Z,41.33
2019-02-20T17:35:54.910Z,40.60
2019-02-20T17:38:47.746Z,39.73
2019-02-20T17:41:39.768Z,40.87
2019-02-20T17:44:22.270Z,40.27
2019-02-20T17:47:07.586Z,39.50
2019-02-20T17:49:53.120Z,40.50
2019-02-20T17:52:41.976Z,37.87
2019-02-20T17:55:24.749Z,39.90
2019-02-20T17:58:15.381Z,39.43
2019-02-20T18:01:04.529Z,45.10
2019-02-20T18:03:50.293Z,53.23
2019-02-20T18:06:35.882Z,55.03
2019-02-20T18:09:18.048Z,42.93
2019-02-20T18:12:00.064Z,42.63
2019-02-20T18:14:41.245Z,40.77
2019-02-20T18:17:32.236Z,42.30
2019-02-20T18:20:13.654Z,41.00
2019-02-20T18:23:03.793Z,39.53
2019-02-20T18:25:51.566Z,40.20
2019-02-20T18:28:34.997Z,36.80
2019-02-20T18:31:20.069Z,39.30
2019-02-20T18:34:02.317Z,39.57
2019-02-20T18:36:47.866Z,39.33
2019-02-20T18:39:28.700Z,39.03
2019-02-20T18:42:25.270Z,40.73
2019-02-20T18:45:06.332Z,38.70
2019-02-20T18:47:50.298Z,39.43
2019-02-20T18:50:34.819Z,38.03
2019-02-20T18:53:16.754Z,37.80
2019-02-20T18:55:59.017Z,39.53
2019-02-20T18:58:42.302Z,40.53
2019-02-20T19:01:24.300Z,39.50
2019-02-20T19:04:21.253Z,39.17
2019-02-20T19:07:15.916Z,39.37
2019-02-20T19:10:01.011Z,39.70
2019-02-20T19:13:07.562Z,40.93
2019-02-20T19:16:44.919Z,41.67
2019-02-20T19:20:02.130Z,39.60
2019-02-20T19:23:07.558Z,39.37
2019-02-20T19:26:28.885Z,40.57
2019-02-20T19:29:48.474Z,42.63
2019-02-20T19:33:15.681Z,43.73
2019-02-20T19:36:45.030Z,44.23
2019-02-20T19:39:47.733Z,42.17
2019-02-20T19:42:54.155Z,44.70
2019-02-20T19:46:28.368Z,42.43
2019-02-20T19:49:18.953Z,41.20
2019-02-20T19:52:29.120Z,43.03
2019-02-20T19:55:41.025Z,44.60
2019-02-20T19:59:08.430Z,43.67
2019-02-20T20:02:28.203Z,40.93
2019-02-20T20:05:54.147Z,42.27
2019-02-20T20:08:54.433Z,43.03
2019-02-20T20:12:18.717Z,42.93
2019-02-20T20:15:39.085Z,41.70
2019-02-20T20:18:58.110Z,42.10
2019-02-20T20:22:09.743Z,40.70
2019-02-20T20:25:10.000Z,43.77
2019-02-20T20:28:32.763Z,40.43
2019-02-20T20:31:43.901Z,40.50
2019-02-20T20:34:56.468Z,44.33
2019-02-20T20:37:51.934Z,42.23
2019-02-20T20:41:11.033Z,44.13
2019-02-20T20:44:39.722Z,43.03
2019-02-20T20:47:28.864Z,42.77
2019-02-20T20:50:18.665Z,45.53
2019-02-20T20:53:28.223Z,42.80
2019-02-20T20:56:57.787Z,40.57
2019-02-20T20:59:59.142Z,42.53
2019-02-20T21:03:01.800Z,42.13
2019-02-20T21:06:06.464Z,41.07
2019-02-20T21:09:02.768Z,42.63
2019-02-20T21:12:10.258Z,41.07
2019-02-20T21:15:40.081Z,42.60
2019-02-20T21:19:06.290Z,41.53
2019-02-20T21:22:00.196Z,42.80
2019-02-20T21:25:10.265Z,43.53
2019-02-20T21:28:22.689Z,42.90
2019-02-20T21:31:49.885Z,40.67
2019-02-20T21:35:07.114Z,44.23
2019-02-20T21:38:26.613Z,44.47
2019-02-20T21:41:35.471Z,45.87
2019-02-20T21:44:56.767Z,44.30
2019-02-20T21:48:13.079Z,44.27
2019-02-20T21:51:15.210Z,45.77
2019-02-20T21:54:12.139Z,44.80
2019-02-20T21:57:12.465Z,45.20
2019-02-20T22:00:32.679Z,46.03
2019-02-20T22:03:40.444Z,45.90
2019-02-20T22:06:52.805Z,46.97
2019-02-20T22:10:10.719Z,46.67
2019-02-20T22:13:26.325Z,47.67
2019-02-20T22:16:44.220Z,49.23
2019-02-20T22:20:16.117Z,48.43
2019-02-20T22:23:27.582Z,48.40
2019-02-20T22:26:27.318Z,47.27
2019-02-20T22:29:28.486Z,48.77
2019-02-20T22:32:43.116Z,49.30
2019-02-20T22:35:52.675Z,47.20
2019-02-20T22:39:15.498Z,47.63
2019-02-20T22:42:49.298Z,48.50
2019-02-20T22:46:17.115Z,47.70
2019-02-20T22:49:32.725Z,47.17
2019-02-20T22:52:37.777Z,48.10
2019-02-20T22:56:04.777Z,46.03
2019-02-20T22:59:27.616Z,48.73
2019-02-20T23:02:29.528Z,129.37
2019-02-20T23:05:43.098Z,67.10
2019-02-20T23:08:59.754Z,52.67
2019-02-20T23:11:50.839Z,51.57
2019-02-20T23:15:00.613Z,48.20
2019-02-20T23:17:44.531Z,48.03
2019-02-20T23:20:27.615Z,49.50
2019-02-20T23:23:10.296Z,45.60
2019-02-20T23:25:51.341Z,45.40
2019-02-20T23:28:34.813Z,45.87
2019-02-20T23:31:17.355Z,45.60
2019-02-20T23:34:00.648Z,45.63
2019-02-20T23:36:43.384Z,45.70
2019-02-20T23:39:23.670Z,47.13
2019-02-20T23:42:10.129Z,48.30
2019-02-20T23:44:53.118Z,46.27
2019-02-20T23:47:32.883Z,48.23
2019-02-20T23:50:15.227Z,47.27
2019-02-20T23:52:57.178Z,47.27
2019-02-20T23:55:42.889Z,55.33
2019-02-20T23:58:25.924Z,55.67
